sensor_id;sensor_type;location;lat;lon;timestamp;temperature;humidity
4602;DHT22;2313;48.552;9.370;2024-03-06T00:00:54;6.20;99.90
4602;DHT22;2313;48.552;9.370;2024-03-06T00:03:19;6.20;99.90
4602;DHT22;2313;48.552;9.370;2024-03-06T00:05:45;6.20;99.90
4602;DHT22;2313;48.552;9.370;2024-03-06T00:08:10;6.30;99.90
4602;DHT22;2313;48.552;9.370;2024-03-06T00:10:36;6.20;99.90
4602;DHT22;2313;48.552;9.370;2024-03-06T00:13:02;6.30;99.90
4602;DHT22;2313;48.552;9.370;2024-03-06T00:15:27;6.30;99.90
4602;DHT22;2313;48.552;9.370;2024-03-06T00:17:53;6.30;99.90
4602;DHT22;2313;48.552;9.370;2024-03-06T00:20:18;6.30;99.90
4602;DHT22;2313;48.552;9.370;2024-03-06T00:22:44;6.30;99.90
4602;DHT22;2313;48.552;9.370;2024-03-06T00:25:10;6.30;99.90
4602;DHT22;2313;48.552;9.370;2024-03-06T00:27:35;6.30;99.90
4602;DHT22;2313;48.552;9.370;2024-03-06T00:30:01;6.30;99.90
4602;DHT22;2313;48.552;9.370;2024-03-06T00:32:27;6.30;99.90
4602;DHT22;2313;48.552;9.370;2024-03-06T00:34:54;6.20;99.90
4602;DHT22;2313;48.552;9.370;2024-03-06T00:37:19;6.20;99.90
4602;DHT22;2313;48.552;9.370;2024-03-06T00:39:45;6.20;99.90
4602;DHT22;2313;48.552;9.370;2024-03-06T00:42:10;6.10;99.90
4602;DHT22;2313;48.552;9.370;2024-03-06T00:44:39;6.10;99.90
4602;DHT22;2313;48.552;9.370;2024-03-06T00:47:04;6.10;99.90
4602;DHT22;2313;48.552;9.370;2024-03-06T00:49:30;5.90;99.90
4602;DHT22;2313;48.552;9.370;2024-03-06T00:51:55;6.00;99.90
4602;DHT22;2313;48.552;9.370;2024-03-06T00:54:21;5.90;99.90
4602;DHT22;2313;48.552;9.370;2024-03-06T00:56:46;5.90;99.90
4602;DHT22;2313;48.552;9.370;2024-03-06T00:59:12;5.80;99.90
4602;DHT22;2313;48.552;9.370;2024-03-06T01:01:38;5.90;99.90
4602;DHT22;2313;48.552;9.370;2024-03-06T01:04:04;5.90;99.90
4602;DHT22;2313;48.552;9.370;2024-03-06T01:06:29;5.90;99.90
4602;DHT22;2313;48.552;9.370;2024-03-06T01:08:56;5.90;99.90
4602;DHT22;2313;48.552;9.370;2024-03-06T01:11:22;5.90;99.90
4602;DHT22;2313;48.552;9.370;2024-03-06T01:13:48;5.90;99.90
4602;DHT22;2313;48.552;9.370;2024-03-06T01:16:14;5.90;99.90
4602;DHT22;2313;48.552;9.370;2024-03-06T01:18:40;5.90;99.90
4602;DHT22;2313;48.552;9.370;2024-03-06T01:21:05;5.90;99.90
4602;DHT22;2313;48.552;9.370;2024-03-06T01:23:31;5.80;99.90
4602;DHT22;2313;48.552;9.370;2024-03-06T01:25:56;5.80;99.90
4602;DHT22;2313;48.552;9.370;2024-03-06T01:28:22;5.80;99.90
4602;DHT22;2313;48.552;9.370;2024-03-06T01:30:47;5.80;99.90
4602;DHT22;2313;48.552;9.370;2024-03-06T01:33:13;5.70;99.90
4602;DHT22;2313;48.552;9.370;2024-03-06T01:35:39;5.70;99.90
4602;DHT22;2313;48.552;9.370;2024-03-06T01:38:04;5.70;99.90
4602;DHT22;2313;48.552;9.370;2024-03-06T01:40:31;5.70;99.90
4602;DHT22;2313;48.552;9.370;2024-03-06T01:42:56;5.60;99.90
4602;DHT22;2313;48.552;9.370;2024-03-06T01:45:22;5.50;99.90
4602;DHT22;2313;48.552;9.370;2024-03-06T01:47:48;5.40;99.90
4602;DHT22;2313;48.552;9.370;2024-03-06T01:50:13;5.50;99.90
4602;DHT22;2313;48.552;9.370;2024-03-06T01:52:40;5.40;99.90
4602;DHT22;2313;48.552;9.370;2024-03-06T01:55:07;5.40;99.90
4602;DHT22;2313;48.552;9.370;2024-03-06T01:57:34;5.40;99.90
4602;DHT22;2313;48.552;9.370;2024-03-06T02:00:02;5.40;99.90
4602;DHT22;2313;48.552;9.370;2024-03-06T02:02:28;5.30;99.90
4602;DHT22;2313;48.552;9.370;2024-03-06T02:04:54;5.40;99.90
4602;DHT22;2313;48.552;9.370;2024-03-06T02:07:23;5.40;99.90
4602;DHT22;2313;48.552;9.370;2024-03-06T02:09:49;5.40;99.90
4602;DHT22;2313;48.552;9.370;2024-03-06T02:12:15;5.40;99.90
4602;DHT22;2313;48.552;9.370;2024-03-06T02:14:41;5.40;99.90
4602;DHT22;2313;48.552;9.370;2024-03-06T02:17:07;5.40;99.90
4602;DHT22;2313;48.552;9.370;2024-03-06T02:19:40;5.40;99.90
4602;DHT22;2313;48.552;9.370;2024-03-06T02:22:06;5.40;99.90
4602;DHT22;2313;48.552;9.370;2024-03-06T02:24:32;5.40;99.90
4602;DHT22;2313;48.552;9.370;2024-03-06T02:26:58;5.40;99.90
4602;DHT22;2313;48.552;9.370;2024-03-06T02:29:24;5.40;99.90
4602;DHT22;2313;48.552;9.370;2024-03-06T02:31:50;5.30;99.90
4602;DHT22;2313;48.552;9.370;2024-03-06T02:34:15;5.20;99.90
4602;DHT22;2313;48.552;9.370;2024-03-06T02:36:41;5.20;99.90
4602;DHT22;2313;48.552;9.370;2024-03-06T02:39:07;5.20;99.90
4602;DHT22;2313;48.552;9.370;2024-03-06T02:41:35;5.20;99.90
4602;DHT22;2313;48.552;9.370;2024-03-06T02:44:01;5.20;99.90
4602;DHT22;2313;48.552;9.370;2024-03-06T02:46:28;5.20;99.90
4602;DHT22;2313;48.552;9.370;2024-03-06T02:48:53;5.20;99.90
4602;DHT22;2313;48.552;9.370;2024-03-06T02:51:20;5.20;99.90
4602;DHT22;2313;48.552;9.370;2024-03-06T02:53:46;5.30;99.90
4602;DHT22;2313;48.552;9.370;2024-03-06T02:56:18;5.30;99.90
4602;DHT22;2313;48.552;9.370;2024-03-06T02:58:45;5.40;99.90
4602;DHT22;2313;48.552;9.370;2024-03-06T03:01:11;5.40;99.90
4602;DHT22;2313;48.552;9.370;2024-03-06T03:03:36;5.50;99.90
4602;DHT22;2313;48.552;9.370;2024-03-06T03:06:02;5.50;99.90
4602;DHT22;2313;48.552;9.370;2024-03-06T03:08:28;5.50;99.90
4602;DHT22;2313;48.552;9.370;2024-03-06T03:10:54;5.40;99.90
4602;DHT22;2313;48.552;9.370;2024-03-06T03:13:20;5.50;99.90
4602;DHT22;2313;48.552;9.370;2024-03-06T03:15:47;5.40;99.90
4602;DHT22;2313;48.552;9.370;2024-03-06T03:18:13;5.50;99.90
4602;DHT22;2313;48.552;9.370;2024-03-06T03:20:39;5.50;99.90
4602;DHT22;2313;48.552;9.370;2024-03-06T03:23:04;5.50;99.90
4602;DHT22;2313;48.552;9.370;2024-03-06T03:25:31;5.50;99.90
4602;DHT22;2313;48.552;9.370;2024-03-06T03:27:59;5.50;99.90
4602;DHT22;2313;48.552;9.370;2024-03-06T03:30:24;5.60;99.90
4602;DHT22;2313;48.552;9.370;2024-03-06T03:32:50;5.60;99.90
4602;DHT22;2313;48.552;9.370;2024-03-06T03:35:15;5.60;99.90
4602;DHT22;2313;48.552;9.370;2024-03-06T03:37:42;5.60;99.90
4602;DHT22;2313;48.552;9.370;2024-03-06T03:40:09;5.60;99.90
4602;DHT22;2313;48.552;9.370;2024-03-06T03:42:37;5.60;99.90
4602;DHT22;2313;48.552;9.370;2024-03-06T03:45:04;5.60;99.90
4602;DHT22;2313;48.552;9.370;2024-03-06T03:47:30;5.60;99.90
4602;DHT22;2313;48.552;9.370;2024-03-06T03:49:55;5.60;99.90
4602;DHT22;2313;48.552;9.370;2024-03-06T03:52:21;5.60;99.90
4602;DHT22;2313;48.552;9.370;2024-03-06T03:54:47;5.60;99.90
4602;DHT22;2313;48.552;9.370;2024-03-06T03:57:13;5.60;99.90
4602;DHT22;2313;48.552;9.370;2024-03-06T03:59:39;5.70;99.90
4602;DHT22;2313;48.552;9.370;2024-03-06T04:02:06;5.70;99.90
4602;DHT22;2313;48.552;9.370;2024-03-06T04:04:32;5.70;99.90
4602;DHT22;2313;48.552;9.370;2024-03-06T04:06:59;5.70;99.90
4602;DHT22;2313;48.552;9.370;2024-03-06T04:09:27;5.70;99.90
4602;DHT22;2313;48.552;9.370;2024-03-06T04:11:52;5.70;99.90
4602;DHT22;2313;48.552;9.370;2024-03-06T04:14:18;5.60;99.90
4602;DHT22;2313;48.552;9.370;2024-03-06T04:16:45;5.70;99.90
4602;DHT22;2313;48.552;9.370;2024-03-06T04:19:11;5.70;99.90
4602;DHT22;2313;48.552;9.370;2024-03-06T04:21:43;5.60;99.90
4602;DHT22;2313;48.552;9.370;2024-03-06T04:24:09;5.70;99.90
4602;DHT22;2313;48.552;9.370;2024-03-06T04:26:35;5.60;99.90
4602;DHT22;2313;48.552;9.370;2024-03-06T04:29:01;5.70;99.90
4602;DHT22;2313;48.552;9.370;2024-03-06T04:31:28;5.70;99.90
4602;DHT22;2313;48.552;9.370;2024-03-06T04:33:53;5.70;99.90
4602;DHT22;2313;48.552;9.370;2024-03-06T04:36:19;5.70;99.90
4602;DHT22;2313;48.552;9.370;2024-03-06T04:38:45;5.80;99.90
4602;DHT22;2313;48.552;9.370;2024-03-06T04:41:10;5.80;99.90
4602;DHT22;2313;48.552;9.370;2024-03-06T04:43:36;5.70;99.90
4602;DHT22;2313;48.552;9.370;2024-03-06T04:46:02;5.70;99.90
4602;DHT22;2313;48.552;9.370;2024-03-06T04:48:28;5.70;99.90
4602;DHT22;2313;48.552;9.370;2024-03-06T04:50:53;5.80;99.90
4602;DHT22;2313;48.552;9.370;2024-03-06T04:53:19;5.80;99.90
4602;DHT22;2313;48.552;9.370;2024-03-06T04:55:45;5.80;99.90
4602;DHT22;2313;48.552;9.370;2024-03-06T04:58:12;5.70;99.90
4602;DHT22;2313;48.552;9.370;2024-03-06T05:00:37;5.80;99.90
4602;DHT22;2313;48.552;9.370;2024-03-06T05:03:03;5.80;99.90
4602;DHT22;2313;48.552;9.370;2024-03-06T05:05:29;5.80;99.90
4602;DHT22;2313;48.552;9.370;2024-03-06T05:07:55;5.80;99.90
4602;DHT22;2313;48.552;9.370;2024-03-06T05:10:20;5.80;99.90
4602;DHT22;2313;48.552;9.370;2024-03-06T05:12:46;5.80;99.90
4602;DHT22;2313;48.552;9.370;2024-03-06T05:15:13;5.80;99.90
4602;DHT22;2313;48.552;9.370;2024-03-06T05:17:39;5.80;99.90
4602;DHT22;2313;48.552;9.370;2024-03-06T05:20:05;5.80;99.90
4602;DHT22;2313;48.552;9.370;2024-03-06T05:22:31;5.80;99.90
4602;DHT22;2313;48.552;9.370;2024-03-06T05:24:57;5.80;99.90
4602;DHT22;2313;48.552;9.370;2024-03-06T05:27:24;5.80;99.90
4602;DHT22;2313;48.552;9.370;2024-03-06T05:29:49;5.80;99.90
4602;DHT22;2313;48.552;9.370;2024-03-06T05:32:15;5.90;99.90
4602;DHT22;2313;48.552;9.370;2024-03-06T05:34:40;5.80;99.90
4602;DHT22;2313;48.552;9.370;2024-03-06T05:37:06;5.70;99.90
4602;DHT22;2313;48.552;9.370;2024-03-06T05:39:32;5.80;99.90
4602;DHT22;2313;48.552;9.370;2024-03-06T05:42:03;5.70;99.90
4602;DHT22;2313;48.552;9.370;2024-03-06T05:44:30;5.70;99.90
4602;DHT22;2313;48.552;9.370;2024-03-06T05:50:17;5.60;99.90
4602;DHT22;2313;48.552;9.370;2024-03-06T05:52:44;5.70;99.90
4602;DHT22;2313;48.552;9.370;2024-03-06T05:55:09;5.70;99.90
4602;DHT22;2313;48.552;9.370;2024-03-06T05:57:35;5.80;99.90
4602;DHT22;2313;48.552;9.370;2024-03-06T06:00:01;5.70;99.90
4602;DHT22;2313;48.552;9.370;2024-03-06T06:02:27;5.70;99.90
4602;DHT22;2313;48.552;9.370;2024-03-06T06:04:53;5.80;99.90
4602;DHT22;2313;48.552;9.370;2024-03-06T06:07:19;5.70;99.90
4602;DHT22;2313;48.552;9.370;2024-03-06T06:09:44;5.70;99.90
4602;DHT22;2313;48.552;9.370;2024-03-06T06:12:10;5.70;99.90
4602;DHT22;2313;48.552;9.370;2024-03-06T06:14:36;5.80;99.90
4602;DHT22;2313;48.552;9.370;2024-03-06T06:17:01;5.80;99.90
4602;DHT22;2313;48.552;9.370;2024-03-06T06:19:28;5.80;99.90
4602;DHT22;2313;48.552;9.370;2024-03-06T06:21:54;5.70;99.90
4602;DHT22;2313;48.552;9.370;2024-03-06T06:24:20;5.70;99.90
4602;DHT22;2313;48.552;9.370;2024-03-06T06:26:45;5.60;99.90
4602;DHT22;2313;48.552;9.370;2024-03-06T06:29:11;5.60;99.90
4602;DHT22;2313;48.552;9.370;2024-03-06T06:31:37;5.70;99.90
4602;DHT22;2313;48.552;9.370;2024-03-06T06:34:02;5.70;99.90
4602;DHT22;2313;48.552;9.370;2024-03-06T06:36:28;5.70;99.90
4602;DHT22;2313;48.552;9.370;2024-03-06T06:38:54;5.70;99.90
4602;DHT22;2313;48.552;9.370;2024-03-06T06:41:20;5.70;99.90
4602;DHT22;2313;48.552;9.370;2024-03-06T06:43:46;5.70;99.90
4602;DHT22;2313;48.552;9.370;2024-03-06T06:46:12;5.70;99.90
4602;DHT22;2313;48.552;9.370;2024-03-06T06:48:37;5.60;99.90
4602;DHT22;2313;48.552;9.370;2024-03-06T06:51:03;5.70;99.90
4602;DHT22;2313;48.552;9.370;2024-03-06T06:53:32;5.70;99.90
4602;DHT22;2313;48.552;9.370;2024-03-06T06:55:58;5.70;99.90
4602;DHT22;2313;48.552;9.370;2024-03-06T06:58:24;5.70;99.90
4602;DHT22;2313;48.552;9.370;2024-03-06T07:00:49;5.70;99.90
4602;DHT22;2313;48.552;9.370;2024-03-06T07:03:16;5.70;99.90
4602;DHT22;2313;48.552;9.370;2024-03-06T07:05:41;5.70;99.90
4602;DHT22;2313;48.552;9.370;2024-03-06T07:08:08;5.70;99.90
4602;DHT22;2313;48.552;9.370;2024-03-06T07:10:33;5.70;99.90
4602;DHT22;2313;48.552;9.370;2024-03-06T07:13:01;5.70;99.90
4602;DHT22;2313;48.552;9.370;2024-03-06T07:15:28;5.70;99.90
4602;DHT22;2313;48.552;9.370;2024-03-06T07:17:54;5.60;99.90
4602;DHT22;2313;48.552;9.370;2024-03-06T07:20:19;5.70;99.90
4602;DHT22;2313;48.552;9.370;2024-03-06T07:22:45;5.70;99.90
4602;DHT22;2313;48.552;9.370;2024-03-06T07:25:10;5.70;99.90
4602;DHT22;2313;48.552;9.370;2024-03-06T07:27:36;5.70;99.90
4602;DHT22;2313;48.552;9.370;2024-03-06T07:30:02;5.60;99.90
4602;DHT22;2313;48.552;9.370;2024-03-06T07:32:28;5.70;99.90
4602;DHT22;2313;48.552;9.370;2024-03-06T07:34:53;5.70;99.90
4602;DHT22;2313;48.552;9.370;2024-03-06T07:37:19;5.70;99.90
4602;DHT22;2313;48.552;9.370;2024-03-06T07:39:44;5.70;99.90
4602;DHT22;2313;48.552;9.370;2024-03-06T07:42:11;5.70;99.90
4602;DHT22;2313;48.552;9.370;2024-03-06T07:44:37;5.70;99.90
4602;DHT22;2313;48.552;9.370;2024-03-06T07:47:02;5.70;99.90
4602;DHT22;2313;48.552;9.370;2024-03-06T07:49:29;5.70;99.90
4602;DHT22;2313;48.552;9.370;2024-03-06T07:51:54;5.70;99.90
4602;DHT22;2313;48.552;9.370;2024-03-06T07:54:20;5.70;99.90
4602;DHT22;2313;48.552;9.370;2024-03-06T07:56:46;5.70;99.90
4602;DHT22;2313;48.552;9.370;2024-03-06T07:59:12;5.70;99.90
4602;DHT22;2313;48.552;9.370;2024-03-06T08:01:39;5.70;99.90
4602;DHT22;2313;48.552;9.370;2024-03-06T08:04:05;5.70;99.90
4602;DHT22;2313;48.552;9.370;2024-03-06T08:06:30;5.70;99.90
4602;DHT22;2313;48.552;9.370;2024-03-06T08:08:59;5.70;99.90
4602;DHT22;2313;48.552;9.370;2024-03-06T08:11:24;5.80;99.90
4602;DHT22;2313;48.552;9.370;2024-03-06T08:13:56;5.80;99.90
4602;DHT22;2313;48.552;9.370;2024-03-06T08:16:22;5.70;99.90
4602;DHT22;2313;48.552;9.370;2024-03-06T08:18:47;5.80;99.90
4602;DHT22;2313;48.552;9.370;2024-03-06T08:21:13;5.80;99.90
4602;DHT22;2313;48.552;9.370;2024-03-06T08:23:38;5.70;99.90
4602;DHT22;2313;48.552;9.370;2024-03-06T08:26:04;5.70;99.90
4602;DHT22;2313;48.552;9.370;2024-03-06T08:28:30;5.80;99.90
4602;DHT22;2313;48.552;9.370;2024-03-06T08:30:56;5.80;99.90
4602;DHT22;2313;48.552;9.370;2024-03-06T08:33:21;5.70;99.90
4602;DHT22;2313;48.552;9.370;2024-03-06T08:35:48;5.80;99.90
4602;DHT22;2313;48.552;9.370;2024-03-06T08:38:13;5.80;99.90
4602;DHT22;2313;48.552;9.370;2024-03-06T08:40:39;5.80;99.90
4602;DHT22;2313;48.552;9.370;2024-03-06T08:43:07;5.90;99.90
4602;DHT22;2313;48.552;9.370;2024-03-06T08:45:35;5.90;99.90
4602;DHT22;2313;48.552;9.370;2024-03-06T08:48:01;5.90;99.90
4602;DHT22;2313;48.552;9.370;2024-03-06T08:50:26;5.90;99.90
4602;DHT22;2313;48.552;9.370;2024-03-06T08:52:52;6.00;99.90
4602;DHT22;2313;48.552;9.370;2024-03-06T08:55:17;6.00;99.90
4602;DHT22;2313;48.552;9.370;2024-03-06T08:57:43;6.00;99.90
4602;DHT22;2313;48.552;9.370;2024-03-06T09:00:09;6.00;99.90
4602;DHT22;2313;48.552;9.370;2024-03-06T09:02:36;6.00;99.90
4602;DHT22;2313;48.552;9.370;2024-03-06T09:05:07;6.00;99.90
4602;DHT22;2313;48.552;9.370;2024-03-06T09:07:32;6.10;99.90
4602;DHT22;2313;48.552;9.370;2024-03-06T09:10:06;6.10;99.90
4602;DHT22;2313;48.552;9.370;2024-03-06T09:12:32;6.00;99.90
4602;DHT22;2313;48.552;9.370;2024-03-06T09:14:58;6.10;99.90
4602;DHT22;2313;48.552;9.370;2024-03-06T09:17:26;6.10;99.90
4602;DHT22;2313;48.552;9.370;2024-03-06T09:19:51;6.10;99.90
4602;DHT22;2313;48.552;9.370;2024-03-06T09:22:17;6.00;99.90
4602;DHT22;2313;48.552;9.370;2024-03-06T09:24:43;6.00;99.90
4602;DHT22;2313;48.552;9.370;2024-03-06T09:27:09;6.00;99.90
4602;DHT22;2313;48.552;9.370;2024-03-06T09:29:34;6.00;99.90
4602;DHT22;2313;48.552;9.370;2024-03-06T09:32:00;5.90;99.90
4602;DHT22;2313;48.552;9.370;2024-03-06T09:34:26;5.90;99.90
4602;DHT22;2313;48.552;9.370;2024-03-06T09:36:51;5.90;99.90
4602;DHT22;2313;48.552;9.370;2024-03-06T09:39:18;6.10;99.90
4602;DHT22;2313;48.552;9.370;2024-03-06T09:41:49;6.00;99.90
4602;DHT22;2313;48.552;9.370;2024-03-06T09:44:19;6.00;99.90
4602;DHT22;2313;48.552;9.370;2024-03-06T09:46:47;6.00;99.90
4602;DHT22;2313;48.552;9.370;2024-03-06T09:49:14;6.10;99.90
4602;DHT22;2313;48.552;9.370;2024-03-06T09:51:43;6.00;99.90
4602;DHT22;2313;48.552;9.370;2024-03-06T09:54:13;6.00;99.90
4602;DHT22;2313;48.552;9.370;2024-03-06T09:59:09;6.10;99.90
4602;DHT22;2313;48.552;9.370;2024-03-06T10:01:39;6.10;99.90
4602;DHT22;2313;48.552;9.370;2024-03-06T10:04:25;6.20;99.90
4602;DHT22;2313;48.552;9.370;2024-03-06T10:06:56;6.10;99.90
4602;DHT22;2313;48.552;9.370;2024-03-06T10:09:23;6.10;99.90
4602;DHT22;2313;48.552;9.370;2024-03-06T10:11:49;6.20;99.90
4602;DHT22;2313;48.552;9.370;2024-03-06T10:14:15;6.20;99.90
4602;DHT22;2313;48.552;9.370;2024-03-06T10:16:57;6.30;99.90
4602;DHT22;2313;48.552;9.370;2024-03-06T10:19:24;6.30;99.90
4602;DHT22;2313;48.552;9.370;2024-03-06T10:21:53;6.30;99.90
4602;DHT22;2313;48.552;9.370;2024-03-06T10:24:23;6.30;99.90
4602;DHT22;2313;48.552;9.370;2024-03-06T10:26:50;6.30;99.90
4602;DHT22;2313;48.552;9.370;2024-03-06T10:29:18;6.20;99.90
4602;DHT22;2313;48.552;9.370;2024-03-06T10:32:02;6.20;99.90
4602;DHT22;2313;48.552;9.370;2024-03-06T10:34:28;6.20;99.90
4602;DHT22;2313;48.552;9.370;2024-03-06T10:36:59;6.20;99.90
4602;DHT22;2313;48.552;9.370;2024-03-06T10:39:25;6.20;99.90
4602;DHT22;2313;48.552;9.370;2024-03-06T10:41:55;6.30;99.90
4602;DHT22;2313;48.552;9.370;2024-03-06T10:44:23;6.30;99.90
4602;DHT22;2313;48.552;9.370;2024-03-06T10:47:03;6.30;99.90
4602;DHT22;2313;48.552;9.370;2024-03-06T10:49:30;6.30;99.90
4602;DHT22;2313;48.552;9.370;2024-03-06T10:52:00;6.30;99.90
4602;DHT22;2313;48.552;9.370;2024-03-06T10:54:29;6.30;99.90
4602;DHT22;2313;48.552;9.370;2024-03-06T10:56:56;6.30;99.90
4602;DHT22;2313;48.552;9.370;2024-03-06T10:59:25;6.30;99.90
4602;DHT22;2313;48.552;9.370;2024-03-06T11:01:55;6.30;99.90
4602;DHT22;2313;48.552;9.370;2024-03-06T11:04:26;6.30;99.90
4602;DHT22;2313;48.552;9.370;2024-03-06T11:06:54;6.20;99.90
4602;DHT22;2313;48.552;9.370;2024-03-06T11:09:20;6.20;99.90
4602;DHT22;2313;48.552;9.370;2024-03-06T11:11:50;6.30;99.90
4602;DHT22;2313;48.552;9.370;2024-03-06T11:14:22;6.30;99.90
4602;DHT22;2313;48.552;9.370;2024-03-06T11:17:04;6.20;99.90
4602;DHT22;2313;48.552;9.370;2024-03-06T11:19:31;6.30;99.90
4602;DHT22;2313;48.552;9.370;2024-03-06T11:21:57;6.30;99.90
4602;DHT22;2313;48.552;9.370;2024-03-06T11:24:33;6.30;99.90
4602;DHT22;2313;48.552;9.370;2024-03-06T11:27:03;6.40;99.90
4602;DHT22;2313;48.552;9.370;2024-03-06T11:30:06;6.40;99.90
4602;DHT22;2313;48.552;9.370;2024-03-06T11:33:00;6.40;99.90
4602;DHT22;2313;48.552;9.370;2024-03-06T11:35:29;6.30;99.90
4602;DHT22;2313;48.552;9.370;2024-03-06T11:37:55;6.30;99.90
4602;DHT22;2313;48.552;9.370;2024-03-06T11:40:25;6.30;99.90
4602;DHT22;2313;48.552;9.370;2024-03-06T11:42:50;6.20;99.90
4602;DHT22;2313;48.552;9.370;2024-03-06T11:45:18;6.20;99.90
4602;DHT22;2313;48.552;9.370;2024-03-06T11:50:24;6.30;99.90
4602;DHT22;2313;48.552;9.370;2024-03-06T11:52:51;6.40;99.90
4602;DHT22;2313;48.552;9.370;2024-03-06T11:55:17;6.40;99.90
4602;DHT22;2313;48.552;9.370;2024-03-06T11:57:42;6.40;99.90
4602;DHT22;2313;48.552;9.370;2024-03-06T12:00:08;6.50;99.90
4602;DHT22;2313;48.552;9.370;2024-03-06T12:02:36;6.60;99.90
4602;DHT22;2313;48.552;9.370;2024-03-06T12:05:03;6.60;99.90
4602;DHT22;2313;48.552;9.370;2024-03-06T12:07:30;6.70;99.90
4602;DHT22;2313;48.552;9.370;2024-03-06T12:09:57;6.70;99.90
4602;DHT22;2313;48.552;9.370;2024-03-06T12:12:24;6.80;99.90
4602;DHT22;2313;48.552;9.370;2024-03-06T12:14:59;6.90;99.90
4602;DHT22;2313;48.552;9.370;2024-03-06T12:17:25;7.00;99.90
4602;DHT22;2313;48.552;9.370;2024-03-06T12:19:51;7.00;99.90
4602;DHT22;2313;48.552;9.370;2024-03-06T12:22:25;6.90;99.90
4602;DHT22;2313;48.552;9.370;2024-03-06T12:25:00;7.00;99.90
4602;DHT22;2313;48.552;9.370;2024-03-06T12:27:26;7.00;99.90
4602;DHT22;2313;48.552;9.370;2024-03-06T12:29:53;6.90;99.90
4602;DHT22;2313;48.552;9.370;2024-03-06T12:32:19;6.90;99.90
4602;DHT22;2313;48.552;9.370;2024-03-06T12:34:44;6.90;99.90
4602;DHT22;2313;48.552;9.370;2024-03-06T12:37:10;6.90;99.90
4602;DHT22;2313;48.552;9.370;2024-03-06T12:39:36;6.90;99.90
4602;DHT22;2313;48.552;9.370;2024-03-06T12:42:02;6.80;99.90
4602;DHT22;2313;48.552;9.370;2024-03-06T12:44:27;6.80;99.90
4602;DHT22;2313;48.552;9.370;2024-03-06T12:46:53;6.70;99.90
4602;DHT22;2313;48.552;9.370;2024-03-06T12:49:18;6.80;99.90
4602;DHT22;2313;48.552;9.370;2024-03-06T12:51:44;6.80;99.90
4602;DHT22;2313;48.552;9.370;2024-03-06T12:54:09;6.80;99.90
4602;DHT22;2313;48.552;9.370;2024-03-06T12:56:35;6.70;99.90
4602;DHT22;2313;48.552;9.370;2024-03-06T12:59:01;6.80;99.90
4602;DHT22;2313;48.552;9.370;2024-03-06T13:01:27;6.80;99.90
4602;DHT22;2313;48.552;9.370;2024-03-06T13:03:52;6.70;99.90
4602;DHT22;2313;48.552;9.370;2024-03-06T13:06:18;6.70;99.90
4602;DHT22;2313;48.552;9.370;2024-03-06T13:08:44;6.70;99.90
4602;DHT22;2313;48.552;9.370;2024-03-06T13:11:09;6.70;99.90
4602;DHT22;2313;48.552;9.370;2024-03-06T13:13:35;6.70;99.90
4602;DHT22;2313;48.552;9.370;2024-03-06T13:16:01;6.70;99.90
4602;DHT22;2313;48.552;9.370;2024-03-06T13:18:26;6.70;99.90
4602;DHT22;2313;48.552;9.370;2024-03-06T13:20:52;6.70;99.90
4602;DHT22;2313;48.552;9.370;2024-03-06T13:23:18;6.70;99.90
4602;DHT22;2313;48.552;9.370;2024-03-06T13:25:43;6.70;99.90
4602;DHT22;2313;48.552;9.370;2024-03-06T13:28:11;6.70;99.90
4602;DHT22;2313;48.552;9.370;2024-03-06T13:30:37;6.70;99.90
4602;DHT22;2313;48.552;9.370;2024-03-06T13:33:04;6.80;99.90
4602;DHT22;2313;48.552;9.370;2024-03-06T13:35:30;6.80;99.90
4602;DHT22;2313;48.552;9.370;2024-03-06T13:37:56;6.80;99.90
4602;DHT22;2313;48.552;9.370;2024-03-06T13:40:21;6.80;99.90
4602;DHT22;2313;48.552;9.370;2024-03-06T13:42:47;6.80;99.90
4602;DHT22;2313;48.552;9.370;2024-03-06T13:45:13;6.80;99.90
4602;DHT22;2313;48.552;9.370;2024-03-06T13:47:40;6.90;99.90
4602;DHT22;2313;48.552;9.370;2024-03-06T13:50:14;6.90;99.90
4602;DHT22;2313;48.552;9.370;2024-03-06T13:52:41;6.90;99.90
4602;DHT22;2313;48.552;9.370;2024-03-06T13:55:07;7.00;99.90
4602;DHT22;2313;48.552;9.370;2024-03-06T13:57:34;7.00;99.90
4602;DHT22;2313;48.552;9.370;2024-03-06T14:00:04;7.00;99.90
4602;DHT22;2313;48.552;9.370;2024-03-06T14:02:31;6.90;99.90
4602;DHT22;2313;48.552;9.370;2024-03-06T14:04:57;6.90;99.90
4602;DHT22;2313;48.552;9.370;2024-03-06T14:07:23;6.90;99.90
4602;DHT22;2313;48.552;9.370;2024-03-06T14:09:52;6.90;99.90
4602;DHT22;2313;48.552;9.370;2024-03-06T14:12:18;6.90;99.90
4602;DHT22;2313;48.552;9.370;2024-03-06T14:14:44;6.90;99.90
4602;DHT22;2313;48.552;9.370;2024-03-06T14:17:12;6.90;99.90
4602;DHT22;2313;48.552;9.370;2024-03-06T14:19:38;6.90;99.90
4602;DHT22;2313;48.552;9.370;2024-03-06T14:22:08;6.90;99.90
4602;DHT22;2313;48.552;9.370;2024-03-06T14:24:34;6.90;99.90
4602;DHT22;2313;48.552;9.370;2024-03-06T14:27:01;6.90;99.90
4602;DHT22;2313;48.552;9.370;2024-03-06T14:29:26;6.80;99.90
4602;DHT22;2313;48.552;9.370;2024-03-06T14:31:53;6.80;99.90
4602;DHT22;2313;48.552;9.370;2024-03-06T14:34:19;6.70;99.90
4602;DHT22;2313;48.552;9.370;2024-03-06T14:36:46;6.80;99.90
4602;DHT22;2313;48.552;9.370;2024-03-06T14:39:11;6.80;99.90
4602;DHT22;2313;48.552;9.370;2024-03-06T14:41:39;6.80;99.90
4602;DHT22;2313;48.552;9.370;2024-03-06T14:44:04;6.80;99.90
4602;DHT22;2313;48.552;9.370;2024-03-06T14:46:30;6.80;99.90
4602;DHT22;2313;48.552;9.370;2024-03-06T14:48:56;6.80;99.90
4602;DHT22;2313;48.552;9.370;2024-03-06T14:51:22;6.80;99.90
4602;DHT22;2313;48.552;9.370;2024-03-06T14:53:47;6.80;99.90
4602;DHT22;2313;48.552;9.370;2024-03-06T14:56:13;6.80;99.90
4602;DHT22;2313;48.552;9.370;2024-03-06T14:58:39;6.80;99.90
4602;DHT22;2313;48.552;9.370;2024-03-06T15:01:05;6.80;99.90
4602;DHT22;2313;48.552;9.370;2024-03-06T15:03:30;6.80;99.90
4602;DHT22;2313;48.552;9.370;2024-03-06T15:05:56;6.80;99.90
4602;DHT22;2313;48.552;9.370;2024-03-06T15:08:22;6.80;99.90
4602;DHT22;2313;48.552;9.370;2024-03-06T15:10:47;6.80;99.90
4602;DHT22;2313;48.552;9.370;2024-03-06T15:13:13;6.80;99.90
4602;DHT22;2313;48.552;9.370;2024-03-06T15:15:41;6.80;99.90
4602;DHT22;2313;48.552;9.370;2024-03-06T15:18:07;6.80;99.90
4602;DHT22;2313;48.552;9.370;2024-03-06T15:20:32;6.80;99.90
4602;DHT22;2313;48.552;9.370;2024-03-06T15:22:59;6.80;99.90
4602;DHT22;2313;48.552;9.370;2024-03-06T15:25:24;6.80;99.90
4602;DHT22;2313;48.552;9.370;2024-03-06T15:27:50;6.70;99.90
4602;DHT22;2313;48.552;9.370;2024-03-06T15:30:16;6.80;99.90
4602;DHT22;2313;48.552;9.370;2024-03-06T15:32:42;6.80;99.90
4602;DHT22;2313;48.552;9.370;2024-03-06T15:35:08;6.70;99.90
4602;DHT22;2313;48.552;9.370;2024-03-06T15:37:34;6.80;99.90
4602;DHT22;2313;48.552;9.370;2024-03-06T15:39:59;6.80;99.90
4602;DHT22;2313;48.552;9.370;2024-03-06T15:42:25;6.80;99.90
4602;DHT22;2313;48.552;9.370;2024-03-06T15:44:51;6.70;99.90
4602;DHT22;2313;48.552;9.370;2024-03-06T15:47:18;6.60;99.90
4602;DHT22;2313;48.552;9.370;2024-03-06T15:49:45;6.60;99.90
4602;DHT22;2313;48.552;9.370;2024-03-06T15:52:11;6.60;99.90
4602;DHT22;2313;48.552;9.370;2024-03-06T15:54:37;6.70;99.90
4602;DHT22;2313;48.552;9.370;2024-03-06T15:57:04;6.70;99.90
4602;DHT22;2313;48.552;9.370;2024-03-06T15:59:33;6.70;99.90
4602;DHT22;2313;48.552;9.370;2024-03-06T16:01:59;6.80;99.90
4602;DHT22;2313;48.552;9.370;2024-03-06T16:04:24;6.70;99.90
4602;DHT22;2313;48.552;9.370;2024-03-06T16:06:51;6.70;99.90
4602;DHT22;2313;48.552;9.370;2024-03-06T16:09:17;6.70;99.90
4602;DHT22;2313;48.552;9.370;2024-03-06T16:11:42;6.70;99.90
4602;DHT22;2313;48.552;9.370;2024-03-06T16:14:08;6.70;99.90
4602;DHT22;2313;48.552;9.370;2024-03-06T16:16:34;6.70;99.90
4602;DHT22;2313;48.552;9.370;2024-03-06T16:18:59;6.70;99.90
4602;DHT22;2313;48.552;9.370;2024-03-06T16:21:25;6.70;99.90